createdAt,value
2018-06-29T00:00:20.657Z,16.81
2018-06-29T00:02:54.005Z,16.75
2018-06-29T00:05:27.413Z,16.72
2018-06-29T00:08:00.729Z,16.70
2018-06-29T00:10:34.037Z,16.69
2018-06-29T00:13:07.498Z,16.67
2018-06-29T00:15:40.717Z,16.64
2018-06-29T00:18:14.057Z,16.60
2018-06-29T00:20:47.406Z,16.52
2018-06-29T00:23:20.726Z,16.44
2018-06-29T00:25:54.009Z,16.35
2018-06-29T00:28:27.499Z,16.31
2018-06-29T00:31:00.881Z,16.27
2018-06-29T00:33:34.222Z,16.20
2018-06-29T00:36:07.512Z,16.20
2018-06-29T00:38:40.876Z,16.18
2018-06-29T00:41:14.213Z,16.15
2018-06-29T00:43:47.633Z,16.17
2018-06-29T00:46:20.877Z,16.16
2018-06-29T00:48:54.200Z,16.08
2018-06-29T00:51:27.591Z,16.03
2018-06-29T00:54:00.912Z,16.05
2018-06-29T00:56:34.237Z,16.00
2018-06-29T00:59:07.616Z,15.92
2018-06-29T01:01:41.066Z,15.93
2018-06-29T01:04:14.346Z,15.93
2018-06-29T01:06:47.687Z,15.92
2018-06-29T01:09:20.948Z,15.92
2018-06-29T01:11:54.265Z,15.92
2018-06-29T01:14:27.569Z,15.89
2018-06-29T01:17:00.896Z,15.88
2018-06-29T01:19:34.186Z,15.83
2018-06-29T01:22:07.539Z,15.79
2018-06-29T01:24:41.222Z,15.73
2018-06-29T01:27:14.660Z,15.72
2018-06-29T01:29:48.013Z,15.71
2018-06-29T01:32:21.316Z,15.67
2018-06-29T01:34:54.605Z,15.65
2018-06-29T01:37:27.928Z,15.63
2018-06-29T01:40:01.248Z,15.59
2018-06-29T01:42:34.541Z,15.56
2018-06-29T01:45:07.981Z,15.50
2018-06-29T01:47:41.305Z,15.48
2018-06-29T01:50:14.672Z,15.48
2018-06-29T01:52:48.002Z,15.47
2018-06-29T01:55:21.317Z,15.42
2018-06-29T01:57:55.704Z,15.38
2018-06-29T02:00:29.002Z,15.36
2018-06-29T02:03:02.343Z,15.34
2018-06-29T02:05:35.635Z,15.31
2018-06-29T02:08:09.033Z,15.26
2018-06-29T02:10:42.286Z,15.21
2018-06-29T02:13:15.589Z,15.20
2018-06-29T02:15:48.877Z,15.19
2018-06-29T02:18:22.236Z,15.18
2018-06-29T02:20:55.582Z,15.15
2018-06-29T02:23:28.912Z,15.12
2018-06-29T02:26:02.193Z,15.13
2018-06-29T02:28:35.500Z,15.12
2018-06-29T02:31:08.829Z,15.14
2018-06-29T02:33:42.148Z,15.13
2018-06-29T02:36:15.457Z,15.09
2018-06-29T02:38:48.813Z,15.07
2018-06-29T02:41:22.101Z,15.05
2018-06-29T02:43:55.409Z,15.01
2018-06-29T02:46:28.704Z,14.98
2018-06-29T02:49:02.050Z,14.95
2018-06-29T02:51:35.666Z,14.92
2018-06-29T02:54:08.981Z,14.88
2018-06-29T02:56:42.289Z,14.84
2018-06-29T02:59:15.599Z,14.83
2018-06-29T03:01:48.925Z,14.79
2018-06-29T03:04:22.341Z,14.76
2018-06-29T03:06:55.637Z,14.63
2018-06-29T03:09:28.973Z,14.60
2018-06-29T03:12:02.278Z,14.59
2018-06-29T03:14:35.705Z,14.58
2018-06-29T03:17:09.027Z,14.54
2018-06-29T03:19:42.352Z,14.48
2018-06-29T03:22:15.659Z,14.40
2018-06-29T03:24:48.972Z,14.36
2018-06-29T03:27:22.257Z,14.39
2018-06-29T03:29:55.642Z,14.41
2018-06-29T03:32:28.965Z,14.41
2018-06-29T03:35:02.301Z,14.46
2018-06-29T03:37:35.602Z,14.48
2018-06-29T03:40:08.911Z,14.51
2018-06-29T03:42:42.221Z,14.52
2018-06-29T03:45:15.526Z,14.53
2018-06-29T03:47:48.837Z,14.53
2018-06-29T03:50:22.152Z,14.54
2018-06-29T03:52:55.449Z,14.61
2018-06-29T03:55:28.749Z,14.66
2018-06-29T03:58:02.079Z,14.68
2018-06-29T04:00:35.404Z,14.70
2018-06-29T04:03:08.803Z,14.74
2018-06-29T04:05:42.110Z,14.84
2018-06-29T04:08:15.409Z,14.87
2018-06-29T04:10:48.738Z,14.98
2018-06-29T04:13:22.034Z,15.13
2018-06-29T04:15:55.325Z,15.32
2018-06-29T04:18:28.613Z,15.48
2018-06-29T04:21:01.946Z,15.67
2018-06-29T04:23:35.369Z,15.83
2018-06-29T04:26:08.689Z,16.01
2018-06-29T04:28:42.345Z,16.18
2018-06-29T04:31:15.656Z,16.32
2018-06-29T04:33:48.954Z,16.46
2018-06-29T04:36:22.269Z,16.58
2018-06-29T04:38:55.568Z,16.68
2018-06-29T04:41:28.885Z,16.86
2018-06-29T04:44:02.605Z,17.01
2018-06-29T04:46:36.008Z,17.19
2018-06-29T04:49:09.309Z,17.35
2018-06-29T04:51:42.629Z,17.51
2018-06-29T04:54:15.973Z,17.72
2018-06-29T04:56:49.541Z,17.88
2018-06-29T04:59:22.902Z,18.01
2018-06-29T05:01:57.934Z,18.13
2018-06-29T05:04:32.121Z,18.29
2018-06-29T05:07:05.486Z,18.44
2018-06-29T05:09:38.829Z,18.58
2018-06-29T05:12:12.124Z,18.75
2018-06-29T05:14:45.485Z,18.93
2018-06-29T05:17:18.890Z,19.12
2018-06-29T05:19:52.205Z,19.35
2018-06-29T05:22:25.516Z,19.57
2018-06-29T05:24:58.820Z,19.78
2018-06-29T05:27:32.148Z,20.04
2018-06-29T05:30:06.566Z,20.30
2018-06-29T05:32:39.942Z,20.60
2018-06-29T05:35:13.288Z,20.91
2018-06-29T05:37:46.581Z,21.19
2018-06-29T05:40:19.940Z,21.41
2018-06-29T05:42:53.347Z,21.64
2018-06-29T05:45:26.689Z,21.83
2018-06-29T05:48:00.026Z,22.07
2018-06-29T05:50:42.929Z,22.35
2018-06-29T05:53:16.233Z,22.60
2018-06-29T05:55:49.798Z,22.86
2018-06-29T05:58:23.200Z,23.08
2018-06-29T06:00:56.653Z,23.32
2018-06-29T06:03:30.126Z,23.54
2018-06-29T06:06:05.379Z,23.69
2018-06-29T06:08:38.780Z,23.90
2018-06-29T06:11:12.162Z,24.09
2018-06-29T06:13:45.450Z,24.21
2018-06-29T06:16:18.777Z,24.35
2018-06-29T06:19:01.018Z,24.53
2018-06-29T06:21:36.782Z,24.70
2018-06-29T06:24:10.228Z,24.81
2018-06-29T06:26:43.561Z,24.88
2018-06-29T06:29:16.837Z,24.97
2018-06-29T06:31:50.144Z,25.11
2018-06-29T06:34:23.453Z,25.22
2018-06-29T06:36:56.768Z,25.41
2018-06-29T06:39:30.208Z,25.51
2018-06-29T06:42:03.657Z,25.55
2018-06-29T06:44:37.013Z,25.56
2018-06-29T06:47:10.398Z,25.64
2018-06-29T06:49:43.727Z,25.73
2018-06-29T06:52:17.357Z,25.75
2018-06-29T06:54:53.350Z,25.80
2018-06-29T06:57:26.700Z,25.89
2018-06-29T07:00:00.371Z,26.02
2018-06-29T07:02:34.408Z,26.14
2018-06-29T07:05:07.709Z,26.31
2018-06-29T07:07:41.031Z,26.40
2018-06-29T07:10:14.333Z,26.53
2018-06-29T07:12:47.657Z,26.67
2018-06-29T07:15:21.003Z,26.75
2018-06-29T07:17:54.381Z,26.84
2018-06-29T07:20:27.694Z,26.91
2018-06-29T07:23:01.000Z,26.88
2018-06-29T07:25:34.294Z,26.90
2018-06-29T07:28:07.628Z,26.93
2018-06-29T07:30:40.946Z,27.07
2018-06-29T07:33:14.249Z,27.24
2018-06-29T07:35:47.548Z,27.36
2018-06-29T07:38:20.861Z,27.51
2018-06-29T07:40:54.165Z,27.59
2018-06-29T07:43:27.480Z,27.75
2018-06-29T07:46:00.753Z,27.92
2018-06-29T07:48:34.061Z,28.09
2018-06-29T07:51:07.561Z,28.27
2018-06-29T07:53:40.893Z,28.31
2018-06-29T07:56:14.185Z,28.30
2018-06-29T07:58:47.841Z,28.37
2018-06-29T08:01:21.231Z,28.45
2018-06-29T08:03:54.601Z,28.50
2018-06-29T08:06:27.905Z,28.56
2018-06-29T08:09:01.305Z,28.52
2018-06-29T08:11:34.818Z,28.61
2018-06-29T08:14:08.175Z,28.70
2018-06-29T08:16:41.509Z,28.71
2018-06-29T08:19:14.816Z,28.59
2018-06-29T08:21:48.477Z,28.53
2018-06-29T08:24:21.887Z,28.63
2018-06-29T08:26:55.262Z,28.65
2018-06-29T08:29:28.608Z,28.76
2018-06-29T08:32:01.977Z,28.84
2018-06-29T08:34:35.502Z,28.90
2018-06-29T08:37:08.898Z,28.90
2018-06-29T08:39:42.218Z,28.88
2018-06-29T08:42:15.531Z,29.09
2018-06-29T08:44:49.073Z,29.15
2018-06-29T08:47:22.538Z,29.17
2018-06-29T08:49:55.827Z,29.24
2018-06-29T08:52:30.977Z,29.35
2018-06-29T08:55:04.607Z,29.36
2018-06-29T08:57:38.004Z,29.42
2018-06-29T09:00:11.588Z,29.50
2018-06-29T09:02:44.944Z,29.52
2018-06-29T09:05:18.430Z,29.56
2018-06-29T09:07:51.814Z,29.57
2018-06-29T09:10:25.193Z,29.60
2018-06-29T09:12:58.556Z,29.62
2018-06-29T09:15:32.505Z,29.64
2018-06-29T09:18:06.026Z,29.70
2018-06-29T09:20:39.589Z,29.53
2018-06-29T09:23:12.900Z,29.61
2018-06-29T09:25:46.196Z,29.61
2018-06-29T09:28:20.513Z,29.64
2018-06-29T09:30:53.896Z,29.65
2018-06-29T09:33:27.316Z,29.60
2018-06-29T09:36:00.614Z,29.70
2018-06-29T09:38:34.286Z,29.81
2018-06-29T09:41:07.629Z,29.76
2018-06-29T09:43:41.045Z,29.78
2018-06-29T09:46:14.348Z,29.76
2018-06-29T09:48:48.025Z,29.86
2018-06-29T09:51:21.395Z,30.02
2018-06-29T09:53:54.839Z,30.15
2018-06-29T09:56:28.681Z,30.26
2018-06-29T09:59:02.072Z,30.42
2018-06-29T10:01:35.502Z,30.52
2018-06-29T10:04:08.849Z,30.53
2018-06-29T10:06:42.153Z,30.83
2018-06-29T10:09:15.487Z,31.60
2018-06-29T10:11:48.905Z,31.88
2018-06-29T10:14:22.327Z,31.71
2018-06-29T10:16:55.662Z,31.42
2018-06-29T10:19:29.035Z,31.33
2018-06-29T10:22:02.384Z,31.25
2018-06-29T10:24:35.737Z,31.35
2018-06-29T10:27:09.397Z,31.48
2018-06-29T10:29:42.706Z,31.39
2018-06-29T10:32:16.103Z,31.50
2018-06-29T10:34:49.566Z,31.57
2018-06-29T10:37:22.921Z,31.58
2018-06-29T10:39:56.429Z,31.65
2018-06-29T10:42:29.781Z,31.72
2018-06-29T10:45:03.315Z,31.75
2018-06-29T10:47:36.614Z,31.83
2018-06-29T10:50:09.982Z,31.71
2018-06-29T10:52:43.272Z,31.59
2018-06-29T10:55:16.773Z,31.67
2018-06-29T10:57:50.117Z,31.72
2018-06-29T11:00:23.466Z,31.80
2018-06-29T11:02:56.808Z,31.72
2018-06-29T11:05:30.163Z,31.71
2018-06-29T11:08:03.517Z,31.73
2018-06-29T11:10:36.877Z,31.87
2018-06-29T11:13:10.315Z,31.87
2018-06-29T11:15:43.768Z,31.79
2018-06-29T11:18:17.491Z,31.79
2018-06-29T11:20:50.854Z,31.81
2018-06-29T11:23:24.253Z,31.87
2018-06-29T11:25:57.673Z,31.90
2018-06-29T11:28:31.074Z,31.99
2018-06-29T11:31:04.425Z,31.98
2018-06-29T11:33:37.866Z,32.07
2018-06-29T11:36:11.281Z,32.01
2018-06-29T11:38:44.726Z,32.00
2018-06-29T11:41:18.102Z,31.90
2018-06-29T11:43:51.810Z,31.82
2018-06-29T11:46:25.203Z,31.75
2018-06-29T11:49:05.170Z,31.86
2018-06-29T11:51:38.590Z,31.91
2018-06-29T11:54:12.916Z,31.84
2018-06-29T11:56:46.255Z,31.78
2018-06-29T11:59:20.975Z,31.66
2018-06-29T12:01:54.349Z,31.64
2018-06-29T12:04:28.718Z,31.66
2018-06-29T12:07:02.050Z,31.67
2018-06-29T12:09:35.435Z,31.72
2018-06-29T12:12:09.022Z,31.87
2018-06-29T12:14:42.333Z,31.96
2018-06-29T12:17:15.633Z,31.91
2018-06-29T12:19:49.007Z,31.82
2018-06-29T12:22:22.355Z,31.70
2018-06-29T12:24:55.710Z,31.63
2018-06-29T12:27:29.045Z,31.56
2018-06-29T12:30:02.646Z,31.56
2018-06-29T12:32:36.018Z,31.63
2018-06-29T12:35:09.462Z,31.61
2018-06-29T12:37:55.099Z,31.61
2018-06-29T12:40:28.806Z,31.64
2018-06-29T12:43:02.295Z,31.62
2018-06-29T12:45:35.777Z,31.54
2018-06-29T12:48:09.381Z,31.52
2018-06-29T12:50:42.734Z,31.47
2018-06-29T12:53:16.076Z,31.45
2018-06-29T12:55:49.743Z,31.42
2018-06-29T12:58:23.125Z,31.48
2018-06-29T13:00:56.420Z,31.51
2018-06-29T13:03:29.885Z,31.52
2018-06-29T13:06:04.090Z,31.58
2018-06-29T13:08:37.601Z,31.61
2018-06-29T13:11:11.882Z,31.66
2018-06-29T13:13:45.220Z,31.59
2018-06-29T13:16:18.529Z,31.47
2018-06-29T13:18:52.060Z,31.42
2018-06-29T13:21:25.773Z,31.45
2018-06-29T13:23:59.119Z,31.46
2018-06-29T13:26:32.447Z,31.49
2018-06-29T13:29:05.802Z,31.55
2018-06-29T13:31:39.209Z,31.62
2018-06-29T13:34:12.571Z,31.66
2018-06-29T13:36:45.908Z,31.64
2018-06-29T13:39:19.457Z,31.41
2018-06-29T13:41:53.308Z,31.33
2018-06-29T13:44:26.803Z,31.63
2018-06-29T13:47:00.171Z,32.06
2018-06-29T13:49:33.525Z,32.30
2018-06-29T13:52:06.958Z,32.04
2018-06-29T13:54:40.494Z,32.04
2018-06-29T13:57:14.043Z,31.94
2018-06-29T13:59:47.664Z,31.77
2018-06-29T14:02:21.456Z,31.50
2018-06-29T14:04:54.838Z,31.44
2018-06-29T14:07:28.319Z,31.37
2018-06-29T14:10:01.799Z,31.27
2018-06-29T14:12:36.134Z,31.30
2018-06-29T14:15:09.586Z,31.36
2018-06-29T14:17:42.915Z,31.37
2018-06-29T14:20:16.300Z,31.40
2018-06-29T14:22:49.648Z,31.42
2018-06-29T14:25:22.988Z,31.51
2018-06-29T14:27:56.463Z,31.58
2018-06-29T14:30:29.813Z,31.58
2018-06-29T14:33:03.125Z,31.71
2018-06-29T14:35:36.626Z,31.65
2018-06-29T14:38:09.970Z,31.62
2018-06-29T14:40:43.399Z,31.44
2018-06-29T14:43:16.702Z,31.41
2018-06-29T14:45:50.089Z,31.39
2018-06-29T14:48:23.364Z,31.40
2018-06-29T14:50:56.676Z,31.22
2018-06-29T14:53:30.144Z,31.10
2018-06-29T14:56:03.611Z,30.99
2018-06-29T14:58:36.926Z,30.79
2018-06-29T15:01:10.314Z,30.67
2018-06-29T15:03:43.621Z,30.60
2018-06-29T15:06:17.549Z,30.57
2018-06-29T15:08:51.097Z,30.67
2018-06-29T15:11:24.455Z,30.80
2018-06-29T15:13:57.796Z,30.80
2018-06-29T15:16:31.335Z,30.70
2018-06-29T15:19:04.777Z,30.69
2018-06-29T15:21:38.346Z,30.69
2018-06-29T15:24:11.673Z,30.58
2018-06-29T15:26:45.182Z,30.42
2018-06-29T15:29:18.919Z,30.29
2018-06-29T15:31:52.300Z,30.28
2018-06-29T15:34:25.786Z,30.30
2018-06-29T15:36:59.277Z,30.12
2018-06-29T15:39:32.596Z,29.97
2018-06-29T15:42:06.427Z,29.99
2018-06-29T15:44:39.891Z,29.98
2018-06-29T15:47:13.209Z,29.92
2018-06-29T15:49:46.530Z,29.80
2018-06-29T15:52:19.945Z,29.81
2018-06-29T15:54:53.281Z,29.79
2018-06-29T15:57:26.630Z,29.71
2018-06-29T16:00:00.010Z,29.74
2018-06-29T16:02:33.374Z,29.74
2018-06-29T16:05:07.133Z,29.85
2018-06-29T16:07:40.737Z,30.03
2018-06-29T16:10:14.021Z,29.91
2018-06-29T16:12:47.641Z,29.82
2018-06-29T16:15:21.094Z,29.69
2018-06-29T16:17:54.577Z,29.59
2018-06-29T16:20:27.930Z,29.58
2018-06-29T16:23:01.338Z,29.54
2018-06-29T16:25:34.812Z,29.41
2018-06-29T16:28:08.355Z,29.45
2018-06-29T16:30:41.693Z,29.48
2018-06-29T16:33:15.377Z,29.44
2018-06-29T16:35:48.772Z,29.39
2018-06-29T16:38:22.581Z,29.40
2018-06-29T16:40:55.887Z,29.40
2018-06-29T16:43:29.222Z,29.42
2018-06-29T16:46:02.564Z,29.45
2018-06-29T16:48:36.726Z,29.45
2018-06-29T16:51:10.652Z,29.40
2018-06-29T16:53:43.992Z,29.28
2018-06-29T16:56:18.125Z,29.04
2018-06-29T16:58:51.847Z,29.02
2018-06-29T17:01:25.178Z,29.23
2018-06-29T17:03:58.500Z,29.30
2018-06-29T17:06:31.838Z,28.98
2018-06-29T17:09:07.511Z,28.86
2018-06-29T17:11:40.892Z,28.99
2018-06-29T17:14:14.198Z,29.03
2018-06-29T17:16:48.577Z,28.76
2018-06-29T17:19:22.433Z,28.64
2018-06-29T17:21:55.822Z,28.70
2018-06-29T17:24:29.217Z,28.66
2018-06-29T17:27:02.729Z,28.55
2018-06-29T17:29:36.124Z,28.28
2018-06-29T17:32:09.975Z,28.38
2018-06-29T17:34:43.287Z,28.41
2018-06-29T17:37:16.840Z,28.44
2018-06-29T17:39:50.215Z,28.27
2018-06-29T17:42:23.571Z,28.23
2018-06-29T17:44:56.961Z,28.22
2018-06-29T17:47:30.426Z,28.02
2018-06-29T17:50:03.773Z,28.00
2018-06-29T17:52:37.207Z,27.98
2018-06-29T17:55:10.830Z,27.95
2018-06-29T17:57:44.177Z,27.83
2018-06-29T18:00:17.454Z,27.77
2018-06-29T18:02:52.587Z,27.66
2018-06-29T18:05:26.017Z,27.51
2018-06-29T18:07:59.310Z,27.51
2018-06-29T18:10:32.954Z,27.46
2018-06-29T18:13:06.373Z,27.47
2018-06-29T18:15:39.926Z,27.47
2018-06-29T18:18:13.224Z,27.48
2018-06-29T18:20:46.613Z,27.48
2018-06-29T18:23:19.966Z,27.43
2018-06-29T18:25:53.933Z,27.32
2018-06-29T18:28:27.380Z,27.21
2018-06-29T18:31:00.677Z,27.12
2018-06-29T18:33:34.034Z,27.00
2018-06-29T18:36:07.417Z,26.93
2018-06-29T18:38:40.737Z,26.80
2018-06-29T18:41:14.093Z,26.73
2018-06-29T18:43:47.665Z,26.63
2018-06-29T18:46:21.028Z,26.52
2018-06-29T18:48:54.472Z,26.44
2018-06-29T18:51:27.745Z,26.36
2018-06-29T18:54:01.417Z,26.28
2018-06-29T18:56:34.707Z,26.21
2018-06-29T18:59:08.064Z,26.06
2018-06-29T19:01:41.472Z,25.96
2018-06-29T19:04:14.789Z,25.89
2018-06-29T19:06:48.069Z,25.81
2018-06-29T19:09:23.507Z,25.74
2018-06-29T19:11:56.801Z,25.63
2018-06-29T19:14:30.291Z,25.58
2018-06-29T19:17:04.006Z,25.52
2018-06-29T19:19:37.369Z,25.43
2018-06-29T19:22:10.884Z,25.36
2018-06-29T19:24:44.209Z,25.25
2018-06-29T19:27:17.657Z,25.14
2018-06-29T19:29:51.015Z,25.09
2018-06-29T19:32:24.419Z,24.97
2018-06-29T19:34:57.885Z,24.91
2018-06-29T19:37:31.216Z,24.79
2018-06-29T19:40:04.685Z,24.73
2018-06-29T19:42:38.235Z,24.67
2018-06-29T19:45:11.577Z,24.58
2018-06-29T19:47:44.882Z,24.50
2018-06-29T19:50:18.215Z,24.40
2018-06-29T19:52:52.034Z,24.34
2018-06-29T19:55:25.475Z,24.23
2018-06-29T19:57:58.815Z,24.15
2018-06-29T20:00:32.305Z,24.10
2018-06-29T20:03:05.841Z,24.02
2018-06-29T20:05:39.223Z,23.94
2018-06-29T20:08:12.569Z,23.88
2018-06-29T20:10:45.893Z,23.80
2018-06-29T20:13:19.407Z,23.76
2018-06-29T20:15:52.820Z,23.76
2018-06-29T20:18:26.174Z,23.72
2018-06-29T20:20:59.877Z,23.66
2018-06-29T20:23:34.265Z,23.62
2018-06-29T20:26:07.714Z,23.54
2018-06-29T20:28:41.233Z,23.48
2018-06-29T20:31:14.552Z,23.41
2018-06-29T20:33:47.994Z,23.32
2018-06-29T20:36:21.671Z,23.29
2018-06-29T20:38:55.221Z,23.23
2018-06-29T20:41:28.445Z,23.19
2018-06-29T20:44:02.157Z,23.10
2018-06-29T20:46:35.726Z,23.04
2018-06-29T20:49:09.186Z,22.96
2018-06-29T20:51:42.505Z,22.80
2018-06-29T20:54:15.829Z,22.72
2018-06-29T20:56:49.962Z,22.67
2018-06-29T20:59:23.396Z,22.62
2018-06-29T21:01:56.783Z,22.56
2018-06-29T21:04:30.207Z,22.46
2018-06-29T21:07:03.653Z,22.42
2018-06-29T21:09:37.109Z,22.37
2018-06-29T21:12:10.449Z,22.33
2018-06-29T21:14:43.880Z,22.21
2018-06-29T21:17:17.293Z,22.16
2018-06-29T21:19:50.968Z,22.12
2018-06-29T21:22:24.368Z,22.07
2018-06-29T21:24:57.742Z,21.99
2018-06-29T21:27:31.155Z,21.95
2018-06-29T21:30:05.082Z,21.86
2018-06-29T21:32:38.572Z,21.79
2018-06-29T21:35:11.942Z,21.78
2018-06-29T21:37:45.237Z,21.77
2018-06-29T21:40:18.776Z,21.71
2018-06-29T21:42:52.250Z,21.63
2018-06-29T21:45:25.644Z,21.61
2018-06-29T21:47:58.978Z,21.51
2018-06-29T21:50:32.382Z,21.43
2018-06-29T21:53:05.933Z,21.34
2018-06-29T21:55:39.371Z,21.23
2018-06-29T21:58:12.700Z,21.13
2018-06-29T22:00:46.167Z,21.05
2018-06-29T22:03:19.649Z,20.97
2018-06-29T22:05:53.068Z,20.91
2018-06-29T22:08:26.378Z,20.87
2018-06-29T22:11:01.915Z,20.80
2018-06-29T22:13:35.267Z,20.68
2018-06-29T22:16:08.604Z,20.65
2018-06-29T22:18:42.116Z,20.59
2018-06-29T22:21:15.457Z,20.51
2018-06-29T22:23:48.749Z,20.46
2018-06-29T22:26:22.245Z,20.39
2018-06-29T22:28:55.914Z,20.35
2018-06-29T22:31:29.446Z,20.25
2018-06-29T22:34:03.193Z,20.22
2018-06-29T22:36:36.665Z,20.15
2018-06-29T22:39:11.875Z,20.12
2018-06-29T22:41:45.622Z,20.07
2018-06-29T22:44:19.138Z,20.08
2018-06-29T22:46:52.756Z,20.08
2018-06-29T22:49:26.409Z,20.04
2018-06-29T22:51:59.857Z,19.96
2018-06-29T22:54:33.671Z,19.92
2018-06-29T22:57:07.199Z,19.91
2018-06-29T22:59:40.809Z,19.86
2018-06-29T23:02:14.312Z,19.81
2018-06-29T23:04:48.386Z,19.69
2018-06-29T23:07:22.088Z,19.66
2018-06-29T23:09:55.502Z,19.56
2018-06-29T23:12:30.001Z,19.48
2018-06-29T23:15:03.361Z,19.40
2018-06-29T23:17:37.479Z,19.31
2018-06-29T23:20:10.837Z,19.13
2018-06-29T23:22:44.368Z,19.01
2018-06-29T23:25:17.750Z,18.94
2018-06-29T23:27:51.698Z,18.74
2018-06-29T23:30:25.136Z,18.65
2018-06-29T23:32:58.605Z,18.57
2018-06-29T23:35:32.124Z,18.51
2018-06-29T23:38:05.858Z,18.40
2018-06-29T23:40:39.225Z,18.36
2018-06-29T23:43:13.033Z,18.32
2018-06-29T23:45:47.013Z,18.30
2018-06-29T23:48:21.494Z,18.27
2018-06-29T23:50:54.846Z,18.19
2018-06-29T23:53:28.442Z,18.15
2018-06-29T23:56:01.830Z,18.08
2018-06-29T23:58:35.241Z,18.04
